Time;durP1;ratioP1;P1;durP2;ratioP2;P2;SDS_P1;SDS_P2;PMS_P1;PMS_P2;Temp;Humidity;BMP_temperature;BMP_pressure;BME280_temperature;BME280_humidity;BME280_pressure;Samples;Min_cycle;Max_cycle;Signal;HPM_P1;HPM_P2
2021/03/17 00:00:50;;;;;;;34.00;16.13;;;;;;;4.00;82.96;100823.15;5046157;57;1140603;-77
2021/03/17 00:06:15;;;;;;;40.73;19.02;;;;;;;4.00;82.67;100828.38;5056297;57;1138545;-76
2021/03/17 00:11:38;;;;;;;124.67;40.45;;;;;;;3.89;82.47;100823.64;4999188;57;1138528;-75
2021/03/17 00:17:02;;;;;;;111.90;41.13;;;;;;;3.80;82.58;100829.30;5037799;57;1140752;-76
2021/03/17 00:22:26;;;;;;;75.05;30.12;;;;;;;3.79;82.60;100830.67;5022018;57;1140797;-76
2021/03/17 00:27:49;;;;;;;56.23;21.57;;;;;;;3.81;82.55;100829.70;4997242;57;1140727;-76
2021/03/17 00:33:14;;;;;;;38.13;17.30;;;;;;;3.80;82.37;100821.91;5005972;57;1140717;-76
2021/03/17 00:38:38;;;;;;;34.40;15.60;;;;;;;3.80;82.77;100827.99;5046458;57;1138979;-77
2021/03/17 00:44:01;;;;;;;23.90;14.03;;;;;;;3.73;82.63;100824.40;5046751;57;1138728;-75
2021/03/17 00:49:25;;;;;;;25.02;12.40;;;;;;;3.67;82.71;100824.66;5005074;57;1139068;-76
2021/03/17 00:54:30;;;;;;;22.67;13.55;;;;;;;3.64;82.68;100816.97;4960132;57;1139167;-76
2021/03/17 00:59:38;;;;;;;21.87;12.45;;;;;;;3.65;82.74;100819.98;5012108;57;1141025;-76
2021/03/17 01:04:44;;;;;;;29.53;13.80;;;;;;;3.65;82.69;100823.45;5025733;57;1141022;-76
2021/03/17 01:09:49;;;;;;;23.67;12.93;;;;;;;3.69;83.19;100824.98;5036932;57;1139068;-77
2021/03/17 01:14:56;;;;;;;26.27;13.63;;;;;;;3.71;83.08;100824.92;5044417;57;1139023;-76
2021/03/17 01:20:01;;;;;;;26.30;12.70;;;;;;;3.67;83.06;100829.89;4986980;57;1139044;-76
2021/03/17 01:25:17;;;;;;;26.90;12.10;;;;;;;3.63;82.90;100838.81;5016827;57;1139423;-76
2021/03/17 01:30:28;;;;;;;36.53;13.00;;;;;;;3.62;82.99;100839.72;4981283;57;1140548;-76
2021/03/17 01:35:34;;;;;;;31.45;14.05;;;;;;;3.65;83.15;100835.67;5005548;57;1140868;-77
2021/03/17 01:40:43;;;;;;;22.48;9.48;;;;;;;3.69;83.55;100834.14;5055624;57;1138622;-76
2021/03/17 01:45:49;;;;;;;19.73;10.50;;;;;;;3.69;83.28;100831.52;5037157;57;1136466;-76
2021/03/17 01:50:59;;;;;;;8.33;4.70;;;;;;;3.54;82.84;100830.44;4992239;57;1138520;-77
2021/03/17 01:56:08;;;;;;;18.02;6.50;;;;;;;3.52;82.69;100832.72;5046768;57;1136858;-76
2021/03/17 02:01:14;;;;;;;10.47;6.43;;;;;;;3.39;82.49;100827.17;5013025;57;1136433;-76
2021/03/17 02:06:19;;;;;;;12.10;6.80;;;;;;;3.30;82.31;100830.20;5017169;57;1136612;-76
2021/03/17 02:11:26;;;;;;;16.05;8.78;;;;;;;3.34;82.64;100832.23;5051399;57;1138699;-77
2021/03/17 02:16:48;;;;;;;19.50;9.00;;;;;;;3.35;82.88;100834.78;5037784;57;1136663;-77
2021/03/17 02:22:51;;;;;;;19.13;9.70;;;;;;;3.42;83.05;100840.58;4991163;57;1136351;-76
2021/03/17 02:28:10;;;;;;;19.67;10.70;;;;;;;3.38;82.75;100839.00;4985627;57;1137110;-76
2021/03/17 02:33:54;;;;;;;21.93;12.33;;;;;;;3.33;82.89;100847.52;5017124;57;1138755;-76
2021/03/17 02:39:27;;;;;;;18.87;11.20;;;;;;;3.24;83.29;100848.73;5034659;57;1138855;-76
2021/03/17 02:44:33;;;;;;;28.95;12.28;;;;;;;3.25;83.32;100854.36;5037961;57;1138712;-76
2021/03/17 02:49:41;;;;;;;22.10;13.27;;;;;;;3.26;83.35;100865.67;4984441;57;1140768;-78
2021/03/17 02:54:50;;;;;;;24.57;14.97;;;;;;;3.22;83.17;100864.94;5006755;57;1138663;-76
2021/03/17 02:59:58;;;;;;;27.17;12.40;;;;;;;3.05;83.01;100864.81;5023842;57;1138669;-77
2021/03/17 03:05:07;;;;;;;23.53;12.20;;;;;;;2.93;83.16;100867.45;5049094;57;1138584;-76
2021/03/17 03:10:15;;;;;;;32.03;17.13;;;;;;;2.89;83.28;100871.58;5018289;57;1138555;-77
2021/03/17 03:15:25;;;;;;;29.53;15.33;;;;;;;2.77;83.27;100874.20;4960646;57;1138530;-76
2021/03/17 03:20:35;;;;;;;30.45;16.77;;;;;;;2.71;83.39;100884.45;5014230;57;1143993;-77
2021/03/17 03:25:41;;;;;;;35.90;18.37;;;;;;;2.70;83.45;100891.03;4969118;57;1138999;-77
2021/03/17 03:30:52;;;;;;;33.73;15.60;;;;;;;2.71;83.40;100893.59;5021084;57;1138385;-76
2021/03/17 03:35:58;;;;;;;29.23;16.33;;;;;;;2.53;82.72;100902.58;4990296;57;1138563;-76
2021/03/17 03:41:04;;;;;;;32.37;16.07;;;;;;;2.36;82.77;100907.14;5018655;57;1138481;-76
2021/03/17 03:46:09;;;;;;;23.40;10.70;;;;;;;2.32;83.19;100901.63;4997888;57;1138393;-76
2021/03/17 03:51:20;;;;;;;23.60;12.33;;;;;;;2.30;83.23;100896.91;5055945;57;1138541;-76
2021/03/17 03:56:33;;;;;;;29.67;15.07;;;;;;;2.36;83.31;100905.38;4970552;57;1138772;-76
2021/03/17 04:02:00;;;;;;;24.77;12.40;;;;;;;2.36;83.39;100905.38;5041672;57;1138917;-75
2021/03/17 04:07:07;;;;;;;29.20;13.58;;;;;;;2.38;83.64;100911.84;4955206;57;1138681;-76
2021/03/17 04:12:14;;;;;;;29.37;14.00;;;;;;;2.39;83.52;100914.86;5053542;57;1138518;-77
2021/03/17 04:17:45;;;;;;;27.40;13.58;;;;;;;2.41;83.50;100913.05;5013971;57;1138501;-77
2021/03/17 04:22:53;;;;;;;29.87;13.90;;;;;;;2.41;83.57;100918.27;4857785;59;1139002;-76
2021/03/17 04:28:00;;;;;;;26.30;12.10;;;;;;;2.42;83.32;100923.43;4810349;59;1138888;-76
2021/03/17 04:33:07;;;;;;;30.10;15.30;;;;;;;2.47;83.46;100918.02;4792045;60;1138917;-74
2021/03/17 04:38:15;;;;;;;28.23;15.73;;;;;;;2.48;83.44;100918.41;4868159;60;1138739;-76
2021/03/17 04:43:22;;;;;;;40.83;18.73;;;;;;;2.53;83.86;100922.16;4863622;59;1138847;-78
2021/03/17 04:48:29;;;;;;;25.40;12.83;;;;;;;2.53;83.73;100919.09;4802148;59;1205277;-75
2021/03/17 04:53:36;;;;;;;31.75;14.65;;;;;;;2.58;83.32;100920.23;4834140;57;1138637;-74
2021/03/17 04:58:43;;;;;;;53.28;24.40;;;;;;;2.58;83.29;100915.02;5007273;57;1138909;-76
2021/03/17 05:03:50;;;;;;;42.63;19.70;;;;;;;2.60;83.64;100910.11;5004295;57;1138698;-78
2021/03/17 05:08:56;;;;;;;48.13;19.47;;;;;;;2.69;83.78;100911.53;5045913;57;1138651;-78
2021/03/17 05:14:02;;;;;;;79.10;33.60;;;;;;;2.62;83.04;100921.80;5051152;56;1138348;-74
2021/03/17 05:19:10;;;;;;;58.37;27.60;;;;;;;2.64;83.08;100933.04;4901367;57;1138840;-77
2021/03/17 05:24:17;;;;;;;55.37;24.87;;;;;;;2.66;83.07;100926.00;5010805;57;1140799;-76
2021/03/17 05:29:25;;;;;;;43.93;18.80;;;;;;;2.72;83.34;100921.86;5051724;56;1138422;-78
2021/03/17 05:34:31;;;;;;;47.30;20.17;;;;;;;2.69;83.02;100933.73;4992632;57;1138593;-74
2021/03/17 05:39:36;;;;;;;43.30;19.50;;;;;;;2.65;83.04;100936.05;5000771;57;1138661;-78
2021/03/17 05:44:43;;;;;;;42.47;18.23;;;;;;;2.64;83.00;100943.48;5032051;55;1138428;-75
2021/03/17 05:49:50;;;;;;;29.60;15.77;;;;;;;2.66;83.27;100945.13;4917316;58;1138994;-78
2021/03/17 05:54:56;;;;;;;33.92;18.17;;;;;;;2.65;83.30;100957.80;4897598;58;1138472;-79
2021/03/17 06:00:02;;;;;;;31.67;15.83;;;;;;;2.63;83.61;100960.91;4990018;57;1138526;-79
2021/03/17 06:05:12;;;;;;;49.27;21.87;;;;;;;2.71;83.64;100968.02;4982108;57;1138549;-79
2021/03/17 06:10:22;;;;;;;53.47;24.03;;;;;;;2.60;83.45;100979.30;4980277;57;1139159;-79
2021/03/17 06:15:29;;;;;;;29.87;12.80;;;;;;;2.58;83.90;100971.16;4982431;58;1139128;-77
2021/03/17 06:20:36;;;;;;;34.48;16.00;;;;;;;2.61;83.82;100982.31;4973662;57;1139038;-75
2021/03/17 06:25:45;;;;;;;37.40;17.73;;;;;;;2.67;83.91;100981.23;5022160;57;1138856;-76
2021/03/17 06:30:54;;;;;;;52.47;22.53;;;;;;;2.69;84.09;100986.80;4947575;57;1138952;-76
2021/03/17 06:36:18;;;;;;;50.73;26.93;;;;;;;2.67;83.93;100991.69;5047487;56;1139395;-76
2021/03/17 06:41:24;;;;;;;37.77;20.20;;;;;;;2.73;84.07;100987.55;5029778;56;1139049;-77
2021/03/17 06:46:29;;;;;;;43.30;23.17;;;;;;;2.79;84.40;100993.37;5017923;57;1138584;-78
2021/03/17 06:51:35;;;;;;;37.63;19.42;;;;;;;2.82;84.32;100994.57;5022404;57;1138953;-79
2021/03/17 06:56:43;;;;;;;45.40;19.67;;;;;;;2.91;84.42;101001.19;5042773;56;1138819;-78
2021/03/17 07:01:49;;;;;;;47.10;23.95;;;;;;;3.02;84.48;101013.41;5050249;57;1139289;-79
2021/03/17 07:07:05;;;;;;;41.37;18.10;;;;;;;3.01;84.44;101018.24;5049985;57;1138756;-77
2021/03/17 07:12:12;;;;;;;32.80;14.90;;;;;;;3.02;84.37;101019.95;5022797;57;1138626;-78
2021/03/17 07:17:36;;;;;;;59.43;29.23;;;;;;;3.03;84.29;101028.19;5018614;57;1138412;-77
2021/03/17 07:22:37;;;;;;;36.10;16.77;;;;;;;3.00;84.59;101021.77;5010601;57;1138974;-78
2021/03/17 07:27:45;;;;;;;46.98;20.65;;;;;;;3.05;84.59;101022.45;5008777;57;1138549;-76
2021/03/17 07:33:08;;;;;;;32.00;15.70;;;;;;;3.11;84.77;101026.56;4981208;57;1138861;-76
2021/03/17 07:38:15;;;;;;;33.67;18.77;;;;;;;3.16;84.64;101024.63;4981294;57;1138426;-79
2021/03/17 07:43:25;;;;;;;45.00;18.57;;;;;;;3.24;84.89;101024.31;5015651;57;1140847;-78
2021/03/17 07:48:30;;;;;;;24.07;12.50;;;;;;;3.38;85.17;101021.55;5047949;57;1138548;-79
2021/03/17 07:53:37;;;;;;;19.53;9.27;;;;;;;3.48;85.11;101022.91;5066828;56;1138921;-78
2021/03/17 07:58:44;;;;;;;13.53;6.92;;;;;;;3.63;84.49;101025.36;5048287;57;1136833;-77
2021/03/17 08:03:52;;;;;;;20.10;9.98;;;;;;;3.67;84.38;101024.75;5043218;57;1136676;-75
2021/03/17 08:09:00;;;;;;;10.20;4.90;;;;;;;3.75;83.84;101025.30;5041947;56;1136971;-76
2021/03/17 08:14:08;;;;;;;24.73;10.10;;;;;;;3.83;83.59;101030.59;5054434;56;1136808;-78
2021/03/17 08:19:29;;;;;;;15.37;8.10;;;;;;;3.87;83.69;101031.33;5045221;56;1138807;-78
2021/03/17 08:24:40;;;;;;;18.90;8.67;;;;;;;3.97;83.64;101042.28;5061717;57;1141701;-78
2021/03/17 08:29:53;;;;;;;11.73;5.97;;;;;;;3.93;82.80;101042.86;5052671;56;1136529;-78
2021/03/17 08:34:59;;;;;;;18.87;8.90;;;;;;;3.84;82.98;101053.69;5058595;56;1136573;-76
2021/03/17 08:40:06;;;;;;;18.00;7.33;;;;;;;3.88;83.33;101047.42;5066225;56;1138906;-76
2021/03/17 08:45:20;;;;;;;13.80;5.53;;;;;;;3.94;83.23;101048.95;5045020;57;1136964;-79
2021/03/17 08:50:27;;;;;;;22.23;9.23;;;;;;;3.98;83.14;101045.26;5057286;57;1136568;-78
2021/03/17 08:55:40;;;;;;;18.42;8.55;;;;;;;4.01;82.92;101051.22;5032392;57;1136591;-79
2021/03/17 09:01:01;;;;;;;16.32;9.55;;;;;;;4.06;82.91;101053.20;5054159;56;1138715;-76
2021/03/17 09:06:18;;;;;;;19.90;10.60;;;;;;;4.04;82.64;101050.25;4951401;57;1136770;-77
2021/03/17 09:11:37;;;;;;;14.63;6.70;;;;;;;4.02;83.12;101054.23;4969532;57;1138738;-76
2021/03/17 09:16:53;;;;;;;19.73;9.68;;;;;;;4.06;82.82;101056.27;4916037;57;1136611;-77
2021/03/17 09:21:59;;;;;;;17.63;6.83;;;;;;;4.02;82.83;101062.55;4945945;57;1136606;-77
2021/03/17 09:27:08;;;;;;;9.63;4.33;;;;;;;4.12;83.26;101067.81;4971443;57;1138555;-76
2021/03/17 09:32:13;;;;;;;10.53;3.83;;;;;;;4.40;83.95;101060.47;4971434;57;1134280;-76
2021/03/17 09:37:19;;;;;;;4.87;3.20;;;;;;;4.84;84.21;101072.06;4959200;57;1136471;-77
2021/03/17 09:42:24;;;;;;;7.40;5.17;;;;;;;5.25;83.81;101072.77;4997274;57;1136656;-77
2021/03/17 09:47:32;;;;;;;10.83;5.20;;;;;;;5.29;81.58;101078.27;5065786;56;1134263;-76
2021/03/17 09:52:40;;;;;;;12.17;6.27;;;;;;;5.19;80.80;101077.86;5056255;57;1136488;-77
2021/03/17 09:57:51;;;;;;;12.35;5.53;;;;;;;5.36;81.12;101081.44;5059693;56;1138634;-76
2021/03/17 10:03:02;;;;;;;15.30;6.77;;;;;;;5.77;82.31;101073.77;5056723;56;1136329;-76
2021/03/17 10:08:08;;;;;;;4.40;2.80;;;;;;;5.85;79.30;101082.11;5068701;56;1136430;-76
2021/03/17 10:13:16;;;;;;;28.60;12.03;;;;;;;6.08;77.08;101073.14;5063043;56;1136412;-77
2021/03/17 10:18:22;;;;;;;8.87;5.17;;;;;;;6.34;78.34;101067.86;5056714;57;1138696;-77
2021/03/17 10:23:28;;;;;;;10.53;5.83;;;;;;;6.56;77.64;101068.47;5040771;56;1134645;-76
2021/03/17 10:28:34;;;;;;;7.10;3.47;;;;;;;6.68;74.50;101055.99;5073489;56;1138916;-77
2021/03/17 10:33:40;;;;;;;4.55;3.25;;;;;;;6.79;74.98;101072.97;4955116;57;1134722;-77
2021/03/17 10:38:53;;;;;;;5.62;3.02;;;;;;;7.10;75.43;101066.91;5070534;56;1134544;-75
2021/03/17 10:44:21;;;;;;;5.40;3.23;;;;;;;7.31;72.20;101069.23;4970259;57;1136756;-75
2021/03/17 10:49:27;;;;;;;7.60;3.60;;;;;;;7.39;72.73;101072.73;4873946;57;1134584;-75
2021/03/17 16:13:42;;;;;;;12.83;6.97;;;;;;;7.76;56.75;101179.02;4990057;56;97790;-76
2021/03/17 16:18:47;;;;;;;9.88;4.78;;;;;;;7.71;55.74;101186.30;4846019;57;1132364;-78
2021/03/17 16:23:53;;;;;;;66.67;36.38;;;;;;;7.56;55.26;101187.61;4878172;56;1134565;-77
2021/03/17 16:28:58;;;;;;;42.50;14.07;;;;;;;7.23;55.49;101195.53;4888633;57;1138890;-77
2021/03/17 16:34:04;;;;;;;12.07;5.85;;;;;;;7.01;56.21;101201.93;4785392;59;1138982;-75
2021/03/17 16:39:10;;;;;;;13.80;5.17;;;;;;;6.84;56.51;101199.31;4799048;58;1136507;-76
2021/03/17 16:44:16;;;;;;;10.00;4.63;;;;;;;6.53;56.95;101207.90;4820834;59;1137051;-77
2021/03/17 16:49:21;;;;;;;13.60;6.73;;;;;;;6.43;57.61;101214.52;4790709;59;1136400;-75
2021/03/17 16:54:27;;;;;;;15.63;7.50;;;;;;;6.26;57.33;101220.59;4826429;59;1136841;-78
2021/03/17 16:59:32;;;;;;;21.47;8.87;;;;;;;6.08;57.43;101228.07;4772743;59;1137025;-76
2021/03/17 17:04:38;;;;;;;18.83;9.57;;;;;;;5.92;57.52;101236.28;4816342;59;1136893;-74
2021/03/17 17:09:43;;;;;;;22.50;9.45;;;;;;;5.85;58.33;101238.29;4801021;58;1136404;-74
2021/03/17 17:14:49;;;;;;;17.75;7.00;;;;;;;5.80;58.44;101241.61;4752006;58;1136383;-76
2021/03/17 17:19:54;;;;;;;36.83;14.60;;;;;;;5.75;58.52;101244.90;4892253;58;1136392;-75
2021/03/17 17:25:00;;;;;;;30.87;13.80;;;;;;;5.69;58.88;101248.25;4922118;59;1138968;-74
2021/03/17 17:30:08;;;;;;;76.33;32.90;;;;;;;5.62;59.11;101247.70;4922467;58;1138420;-74
2021/03/17 17:35:15;;;;;;;51.23;21.40;;;;;;;5.55;59.43;101254.13;4921384;58;1138766;-72
2021/03/17 17:40:24;;;;;;;83.43;29.40;;;;;;;5.47;59.29;101254.95;4923182;58;1138694;-75
2021/03/17 17:45:29;;;;;;;96.53;35.20;;;;;;;5.34;59.72;101264.28;4922989;58;1139023;-76
2021/03/17 17:50:37;;;;;;;95.80;33.73;;;;;;;5.23;59.90;101269.52;4922881;58;1138534;-75
2021/03/17 17:55:43;;;;;;;77.57;32.67;;;;;;;5.18;60.42;101270.20;4903903;58;1138495;-75
2021/03/17 18:00:49;;;;;;;91.95;36.58;;;;;;;5.20;60.54;101277.52;4886305;58;1138471;-74
2021/03/17 18:05:55;;;;;;;126.53;45.20;;;;;;;5.20;60.70;101275.34;4762944;58;1138519;-76
2021/03/17 18:11:01;;;;;;;114.53;44.10;;;;;;;5.10;60.54;101288.02;4831709;59;1140551;-78
2021/03/17 18:16:07;;;;;;;78.60;32.43;;;;;;;4.94;60.51;101282.56;4893208;58;1140642;-77
2021/03/17 18:21:12;;;;;;;68.57;30.63;;;;;;;4.86;60.92;101289.06;4902931;58;1138775;-77
2021/03/17 18:26:18;;;;;;;111.23;44.47;;;;;;;4.79;61.12;101287.59;4903029;58;1138710;-77
2021/03/17 18:31:24;;;;;;;177.60;65.80;;;;;;;4.82;61.55;101291.41;4902655;58;1140694;-76
2021/03/17 18:36:29;;;;;;;256.07;94.77;;;;;;;4.84;61.76;101296.98;4902735;58;1141008;-77
2021/03/17 18:41:35;;;;;;;256.33;91.43;;;;;;;4.84;61.81;101297.44;4888043;59;1140648;-77
2021/03/17 18:46:44;;;;;;;278.53;95.13;;;;;;;4.79;61.85;101303.31;4901312;59;1140709;-75
2021/03/17 18:51:48;;;;;;;286.12;105.10;;;;;;;4.73;61.85;101307.06;4901163;59;1140609;-76
2021/03/17 18:56:54;;;;;;;297.55;111.20;;;;;;;4.70;62.08;101316.35;4900458;59;1143236;-75
2021/03/17 19:02:00;;;;;;;200.25;83.90;;;;;;;4.67;62.21;101322.16;4900745;59;1142624;-76
2021/03/17 19:07:05;;;;;;;166.13;69.27;;;;;;;4.62;62.12;101319.72;4901080;59;1141045;-74
2021/03/17 19:12:12;;;;;;;121.37;48.80;;;;;;;4.59;62.25;101329.00;4900644;59;1140521;-75
2021/03/17 19:17:18;;;;;;;110.30;41.93;;;;;;;4.55;62.27;101334.00;4900752;59;1140588;-76
2021/03/17 19:22:25;;;;;;;166.43;55.23;;;;;;;4.38;62.22;101318.94;4900555;59;1140757;-76
2021/03/17 19:27:31;;;;;;;234.80;67.33;;;;;;;4.38;62.30;101337.73;4901162;59;1141049;-74
2021/03/17 19:32:37;;;;;;;254.03;69.67;;;;;;;4.31;62.35;101339.72;4895146;59;1140836;-74
2021/03/17 19:37:44;;;;;;;207.64;63.78;;;;;;;4.24;62.47;101346.13;4902568;58;1141002;-77
2021/03/17 19:42:51;;;;;;;164.22;55.25;;;;;;;4.15;62.53;101345.14;4861707;59;1140549;-75
2021/03/17 19:47:59;;;;;;;153.72;58.58;;;;;;;4.10;62.80;101348.41;4977600;57;1140513;-77
2021/03/17 19:53:06;;;;;;;191.53;62.00;;;;;;;4.04;63.04;101351.24;4897262;58;1140579;-77
2021/03/17 19:58:32;;;;;;;197.73;79.03;;;;;;;3.96;63.19;101354.61;4829375;58;1140851;-77
2021/03/17 20:03:45;;;;;;;198.70;81.15;;;;;;;3.89;63.31;101357.45;4892966;58;1140661;-78
2021/03/17 20:08:51;;;;;;;186.97;80.83;;;;;;;3.85;63.41;101361.08;4900720;58;1140691;-77
2021/03/17 20:14:03;;;;;;;209.07;83.43;;;;;;;3.84;63.76;101360.67;4822033;59;1140704;-76
2021/03/17 20:19:08;;;;;;;208.97;81.07;;;;;;;3.80;64.08;101363.02;4874716;59;1140648;-77
2021/03/17 20:24:15;;;;;;;194.37;77.17;;;;;;;3.76;63.94;101377.12;4959747;58;1140820;-78
2021/03/17 20:29:22;;;;;;;200.90;77.73;;;;;;;3.59;63.55;101370.31;4903812;58;1141097;-77
2021/03/17 20:34:42;;;;;;;223.03;80.13;;;;;;;3.43;63.77;101370.45;4811126;60;1141361;-77
2021/03/17 20:39:49;;;;;;;195.47;66.63;;;;;;;3.29;64.15;101370.92;4815501;59;1150487;-79
2021/03/17 20:45:05;;;;;;;123.75;44.10;;;;;;;3.16;64.05;101377.02;4759783;60;1140553;-75
2021/03/17 20:50:17;;;;;;;125.67;44.80;;;;;;;3.07;64.29;101373.84;4793935;59;1140831;-78
2021/03/17 20:55:27;;;;;;;148.83;51.33;;;;;;;3.02;64.49;101372.70;4840201;59;1140658;-79
2021/03/17 21:00:38;;;;;;;218.23;76.97;;;;;;;2.99;64.73;101375.41;4745533;60;1141740;-75
2021/03/17 21:05:47;;;;;;;146.83;52.47;;;;;;;2.97;64.86;101373.75;4852619;59;1141065;-75
2021/03/17 21:10:55;;;;;;;156.40;57.20;;;;;;;2.87;64.30;101370.59;4835381;59;1140566;-75
2021/03/17 21:16:03;;;;;;;180.10;66.95;;;;;;;2.39;63.89;101367.30;4969941;57;1140612;-74
2021/03/17 21:21:13;;;;;;;194.63;74.30;;;;;;;2.06;64.26;101369.59;4970655;57;1140983;-78
2021/03/17 21:26:18;;;;;;;134.70;49.97;;;;;;;1.90;65.00;101372.23;4937379;58;1140469;-77
2021/03/17 21:31:25;;;;;;;141.40;58.05;;;;;;;1.74;65.29;101378.33;4921639;58;1140513;-76
2021/03/17 21:36:33;;;;;;;113.60;46.03;;;;;;;1.68;66.14;101376.73;4918713;58;1140887;-76
2021/03/17 21:41:40;;;;;;;135.13;55.63;;;;;;;1.84;66.75;101376.31;4922150;58;1140643;-75
2021/03/17 21:46:47;;;;;;;172.53;68.57;;;;;;;1.98;66.83;101372.89;4929321;58;1140786;-76
2021/03/17 21:51:54;;;;;;;155.12;59.03;;;;;;;1.91;66.07;101379.16;4920063;58;1141267;-78
2021/03/17 21:57:00;;;;;;;146.02;56.23;;;;;;;1.83;66.11;101382.00;4921837;58;1140720;-74
2021/03/17 22:02:05;;;;;;;138.50;48.33;;;;;;;1.79;66.42;101380.38;4921814;58;1140854;-75
2021/03/17 22:07:11;;;;;;;113.87;41.93;;;;;;;1.85;66.73;101383.23;4921673;58;1140638;-76
2021/03/17 22:12:16;;;;;;;154.00;54.47;;;;;;;1.72;66.10;101392.70;4921756;58;1140944;-79
2021/03/17 22:17:22;;;;;;;126.30;46.13;;;;;;;1.61;66.44;101388.69;4921695;58;1140517;-75
2021/03/17 22:22:28;;;;;;;108.27;41.10;;;;;;;1.61;66.74;101383.47;4992286;58;1140999;-77
2021/03/17 22:27:34;;;;;;;126.37;47.80;;;;;;;1.67;67.18;101380.71;5001439;58;1140514;-76
2021/03/17 22:32:40;;;;;;;156.50;60.60;;;;;;;1.72;67.19;101382.28;5001499;58;1140728;-76
2021/03/17 22:37:46;;;;;;;155.83;63.30;;;;;;;1.74;67.10;101379.63;5001399;58;1140552;-77
2021/03/17 22:42:52;;;;;;;155.57;65.57;;;;;;;1.74;66.93;101379.19;4965577;58;1144257;-74
2021/03/17 22:47:58;;;;;;;175.87;66.47;;;;;;;1.51;66.26;101376.80;4966378;58;1140915;-75
2021/03/17 22:53:05;;;;;;;165.00;59.37;;;;;;;1.28;66.46;101374.34;4869319;59;1140995;-77
2021/03/17 22:58:11;;;;;;;138.07;51.37;;;;;;;1.13;66.63;101381.68;4828340;59;1140634;-76
2021/03/17 23:03:19;;;;;;;131.03;46.17;;;;;;;0.88;66.84;101370.58;4910165;59;1140542;-78
2021/03/17 23:08:41;;;;;;;144.07;52.13;;;;;;;0.76;67.50;101370.02;4837223;59;1140715;-76
2021/03/17 23:13:49;;;;;;;136.75;55.38;;;;;;;0.88;68.29;101382.30;4909858;59;1141261;-77
2021/03/17 23:18:59;;;;;;;130.05;47.40;;;;;;;1.06;68.45;101386.20;4837281;59;1140574;-76
2021/03/17 23:24:30;;;;;;;121.17;47.10;;;;;;;1.15;68.43;101382.06;4926660;59;1140556;-78
2021/03/17 23:29:43;;;;;;;141.10;53.53;;;;;;;1.21;68.33;101375.41;5014057;58;1140708;-78
2021/03/17 23:34:53;;;;;;;136.10;53.05;;;;;;;1.24;68.14;101377.91;5003538;58;1140842;-79
2021/03/17 23:40:02;;;;;;;129.38;51.58;;;;;;;1.22;67.81;101382.30;5014085;58;1141326;-76
2021/03/17 23:45:12;;;;;;;136.47;50.23;;;;;;;1.15;67.87;101375.55;5013796;58;1141010;-75
2021/03/17 23:50:34;;;;;;;109.13;44.00;;;;;;;1.15;68.23;101370.33;5013314;58;1140900;-79
2021/03/17 23:55:40;;;;;;;101.07;40.63;;;;;;;1.17;68.12;101375.51;4997745;58;1140949;-76
